createdAt,value
2018-10-05T00:00:38.450Z,75.54
2018-10-05T00:03:08.059Z,75.06
2018-10-05T00:05:37.561Z,75.16
2018-10-05T00:08:07.418Z,75.37
2018-10-05T00:10:37.321Z,75.71
2018-10-05T00:13:06.873Z,76.06
2018-10-05T00:15:36.592Z,75.54
2018-10-05T00:18:06.506Z,75.74
2018-10-05T00:20:36.484Z,75.17
2018-10-05T00:23:06.438Z,75.87
2018-10-05T00:25:36.222Z,76.09
2018-10-05T00:28:06.078Z,76.59
2018-10-05T00:30:35.630Z,76.77
2018-10-05T00:33:05.110Z,77.10
2018-10-05T00:35:34.674Z,77.45
2018-10-05T00:38:04.138Z,76.91
2018-10-05T00:40:33.843Z,77.69
2018-10-05T00:43:03.355Z,77.48
2018-10-05T00:45:32.906Z,77.76
2018-10-05T00:48:02.433Z,77.75
2018-10-05T00:50:32.001Z,77.86
2018-10-05T00:53:01.787Z,77.74
2018-10-05T00:55:31.770Z,78.03
2018-10-05T00:58:01.254Z,78.13
2018-10-05T01:00:31.187Z,77.89
2018-10-05T01:03:00.642Z,78.24
2018-10-05T01:05:30.149Z,79.07
2018-10-05T01:07:59.635Z,78.29
2018-10-05T01:10:29.178Z,77.79
2018-10-05T01:12:58.770Z,78.37
2018-10-05T01:15:28.298Z,77.76
2018-10-05T01:17:57.836Z,78.06
2018-10-05T01:20:27.418Z,78.10
2018-10-05T01:22:56.967Z,78.15
2018-10-05T01:25:26.461Z,78.61
2018-10-05T01:27:55.982Z,78.65
2018-10-05T01:30:25.509Z,78.31
2018-10-05T01:32:55.018Z,78.58
2018-10-05T01:35:24.519Z,78.19
2018-10-05T01:37:54.031Z,77.72
2018-10-05T01:40:23.549Z,77.68
2018-10-05T01:42:53.069Z,77.10
2018-10-05T01:45:22.556Z,77.29
2018-10-05T01:47:52.032Z,76.42
2018-10-05T01:50:21.535Z,77.15
2018-10-05T01:52:51.234Z,77.24
2018-10-05T01:55:20.757Z,77.26
2018-10-05T01:57:50.278Z,76.73
2018-10-05T02:00:20.110Z,76.56
2018-10-05T02:02:49.620Z,76.42
2018-10-05T02:05:19.156Z,76.49
2018-10-05T02:07:48.714Z,76.38
2018-10-05T02:10:18.300Z,77.16
2018-10-05T02:12:47.942Z,75.78
2018-10-05T02:15:17.522Z,75.94
2018-10-05T02:17:47.041Z,76.31
2018-10-05T02:20:16.569Z,76.10
2018-10-05T02:22:46.051Z,76.27
2018-10-05T02:25:15.562Z,76.44
2018-10-05T02:27:45.064Z,76.71
2018-10-05T02:30:14.609Z,76.45
2018-10-05T02:32:44.133Z,76.57
2018-10-05T02:35:13.665Z,76.41
2018-10-05T02:37:43.305Z,76.19
2018-10-05T02:40:12.895Z,76.75
2018-10-05T02:42:42.412Z,76.49
2018-10-05T02:45:11.947Z,76.51
2018-10-05T02:47:41.448Z,76.41
2018-10-05T02:50:17.435Z,76.15
2018-10-05T02:52:47.014Z,75.69
2018-10-05T02:55:16.554Z,76.10
2018-10-05T02:57:46.070Z,76.20
2018-10-05T03:00:32.741Z,75.68
2018-10-05T03:03:02.343Z,75.57
2018-10-05T03:05:31.861Z,76.00
2018-10-05T03:08:01.396Z,76.13
2018-10-05T03:10:31.218Z,76.12
2018-10-05T03:13:00.707Z,76.33
2018-10-05T03:15:30.256Z,76.87
2018-10-05T03:17:59.951Z,76.43
2018-10-05T03:20:29.525Z,76.30
2018-10-05T03:22:59.336Z,76.22
2018-10-05T03:25:28.893Z,76.17
2018-10-05T03:27:58.450Z,75.90
2018-10-05T03:30:27.951Z,76.41
2018-10-05T03:32:57.463Z,76.42
2018-10-05T03:35:26.977Z,77.11
2018-10-05T03:37:56.530Z,76.85
2018-10-05T03:40:26.026Z,76.53
2018-10-05T03:42:55.606Z,77.19
2018-10-05T03:45:25.130Z,76.94
2018-10-05T03:47:54.650Z,76.17
2018-10-05T03:50:24.355Z,76.76
2018-10-05T03:52:53.944Z,76.99
2018-10-05T03:55:23.464Z,76.50
2018-10-05T03:57:53.313Z,76.25
2018-10-05T04:00:23.107Z,76.36
2018-10-05T04:02:52.613Z,76.04
2018-10-05T04:05:22.123Z,75.91
2018-10-05T04:07:51.610Z,75.96
2018-10-05T04:10:21.123Z,76.24
2018-10-05T04:12:50.650Z,75.75
2018-10-05T04:15:20.131Z,76.37
2018-10-05T04:17:49.631Z,76.50
2018-10-05T04:20:19.094Z,76.27
2018-10-05T04:22:48.563Z,76.26
2018-10-05T04:25:18.263Z,76.40
2018-10-05T04:27:47.771Z,76.13
2018-10-05T04:30:17.320Z,76.13
2018-10-05T04:32:46.777Z,76.13
2018-10-05T04:35:16.275Z,76.46
2018-10-05T04:37:45.781Z,76.38
2018-10-05T04:40:15.324Z,76.46
2018-10-05T04:42:44.821Z,76.79
2018-10-05T04:45:14.375Z,76.39
2018-10-05T04:47:43.876Z,76.86
2018-10-05T04:50:13.370Z,76.48
2018-10-05T04:52:42.919Z,77.22
2018-10-05T04:55:12.408Z,76.58
2018-10-05T04:57:42.039Z,76.54
2018-10-05T05:00:11.543Z,76.54
2018-10-05T05:02:41.117Z,76.81
2018-10-05T05:05:10.616Z,76.61
2018-10-05T05:07:40.342Z,76.91
2018-10-05T05:10:09.935Z,76.47
2018-10-05T05:12:39.427Z,76.90
2018-10-05T05:15:09.356Z,76.33
2018-10-05T05:17:38.909Z,77.11
2018-10-05T05:20:08.528Z,77.24
2018-10-05T05:22:38.321Z,76.97
2018-10-05T05:25:07.866Z,77.11
2018-10-05T05:27:37.413Z,77.42
2018-10-05T05:30:07.579Z,77.30
2018-10-05T05:32:37.218Z,77.37
2018-10-05T05:35:07.060Z,77.20
2018-10-05T05:37:36.591Z,76.81
2018-10-05T05:40:06.751Z,76.94
2018-10-05T05:42:36.210Z,76.58
2018-10-05T05:45:05.705Z,76.74
2018-10-05T05:47:35.228Z,77.36
2018-10-05T05:50:04.785Z,77.41
2018-10-05T05:52:34.275Z,78.33
2018-10-05T05:55:04.045Z,77.38
2018-10-05T05:57:33.762Z,77.84
2018-10-05T06:00:03.634Z,77.51
2018-10-05T06:02:33.122Z,77.09
2018-10-05T06:05:02.645Z,77.28
2018-10-05T06:07:32.183Z,77.45
2018-10-05T06:10:01.765Z,77.33
2018-10-05T06:12:31.258Z,77.14
2018-10-05T06:15:00.774Z,76.80
2018-10-05T06:17:30.281Z,77.09
2018-10-05T06:22:56.720Z,76.31
2018-10-05T06:25:26.267Z,76.87
2018-10-05T06:27:55.781Z,76.43
2018-10-05T06:30:25.602Z,76.64
2018-10-05T06:32:55.268Z,77.17
2018-10-05T06:35:24.928Z,76.51
2018-10-05T06:37:54.504Z,76.35
2018-10-05T06:40:24.163Z,76.31
2018-10-05T06:42:53.653Z,76.55
2018-10-05T06:45:23.199Z,75.89
2018-10-05T06:47:52.748Z,76.07
2018-10-05T06:50:22.278Z,76.36
2018-10-05T06:52:51.959Z,76.13
2018-10-05T06:55:21.482Z,75.76
2018-10-05T06:57:50.978Z,75.65
2018-10-05T07:00:20.498Z,75.67
2018-10-05T07:02:49.999Z,76.05
2018-10-05T07:05:19.510Z,75.61
2018-10-05T07:07:49.155Z,75.46
2018-10-05T07:10:18.716Z,75.79
2018-10-05T07:12:48.258Z,75.62
2018-10-05T07:15:18.164Z,75.04
2018-10-05T07:17:47.761Z,75.02
2018-10-05T07:20:17.309Z,74.63
2018-10-05T07:22:47.134Z,74.70
2018-10-05T07:25:16.657Z,74.53
2018-10-05T07:27:46.225Z,74.19
2018-10-05T07:30:15.788Z,74.39
2018-10-05T07:32:45.337Z,73.92
2018-10-05T07:35:14.842Z,73.55
2018-10-05T07:37:44.384Z,73.33
2018-10-05T07:40:13.865Z,73.10
2018-10-05T07:42:43.593Z,72.88
2018-10-05T07:45:13.126Z,72.98
2018-10-05T07:47:42.767Z,72.44
2018-10-05T07:50:12.407Z,72.10
2018-10-05T07:52:41.947Z,71.39
2018-10-05T07:55:11.446Z,71.76
2018-10-05T07:57:41.276Z,71.21
2018-10-05T08:00:10.827Z,70.96
2018-10-05T08:02:40.348Z,70.72
2018-10-05T08:05:10.560Z,71.37
2018-10-05T08:07:40.060Z,70.27
2018-10-05T08:10:09.585Z,70.86
2018-10-05T08:12:39.342Z,70.30
2018-10-05T08:15:09.281Z,70.20
2018-10-05T08:17:38.818Z,70.75
2018-10-05T08:20:08.323Z,70.29
2018-10-05T08:22:37.841Z,70.00
2018-10-05T08:25:07.719Z,70.03
2018-10-05T08:27:37.449Z,69.40
2018-10-05T08:30:08.201Z,69.66
2018-10-05T08:32:37.954Z,69.77
2018-10-05T08:35:07.493Z,69.66
2018-10-05T08:37:36.966Z,68.65
2018-10-05T08:40:07.962Z,68.15
2018-10-05T08:42:37.663Z,68.20
2018-10-05T08:45:07.378Z,67.37
2018-10-05T08:47:37.001Z,67.01
2018-10-05T08:50:06.945Z,65.94
2018-10-05T08:52:36.475Z,66.14
2018-10-05T08:55:06.056Z,65.67
2018-10-05T08:57:35.949Z,65.48
2018-10-05T09:00:05.554Z,64.14
2018-10-05T09:02:35.272Z,64.42
2018-10-05T09:05:04.763Z,63.75
2018-10-05T09:07:34.698Z,64.26
2018-10-05T09:10:04.522Z,64.03
2018-10-05T09:12:34.073Z,63.58
2018-10-05T09:15:03.563Z,61.83
2018-10-05T09:17:33.115Z,61.01
2018-10-05T09:20:02.797Z,58.24
2018-10-05T09:22:32.353Z,57.82
2018-10-05T09:25:01.870Z,56.66
2018-10-05T09:27:31.348Z,57.89
2018-10-05T09:30:00.873Z,56.22
2018-10-05T09:32:30.452Z,57.01
2018-10-05T09:34:59.962Z,56.24
2018-10-05T09:37:29.568Z,55.75
2018-10-05T09:39:59.258Z,55.98
2018-10-05T09:42:28.760Z,54.69
2018-10-05T09:44:58.325Z,53.69
2018-10-05T09:47:27.947Z,53.96
2018-10-05T09:49:57.605Z,53.93
2018-10-05T09:52:27.281Z,52.77
2018-10-05T09:54:56.973Z,52.89
2018-10-05T09:57:26.554Z,53.50
2018-10-05T09:59:56.215Z,52.46
2018-10-05T10:02:31.042Z,51.34
2018-10-05T10:05:00.717Z,51.15
2018-10-05T10:07:30.232Z,50.97
2018-10-05T10:09:59.833Z,49.60
2018-10-05T10:12:29.352Z,49.75
2018-10-05T10:14:58.968Z,48.87
2018-10-05T10:17:28.492Z,48.40
2018-10-05T10:19:58.315Z,47.85
2018-10-05T10:22:27.853Z,46.63
2018-10-05T10:24:58.024Z,47.02
2018-10-05T10:27:27.522Z,47.96
2018-10-05T10:29:57.269Z,46.56
2018-10-05T10:32:26.892Z,45.83
2018-10-05T10:34:56.523Z,46.60
2018-10-05T10:37:26.297Z,46.95
2018-10-05T10:39:55.873Z,45.67
2018-10-05T10:42:25.563Z,44.78
2018-10-05T10:44:55.255Z,45.79
2018-10-05T10:47:24.803Z,45.32
2018-10-05T10:49:54.429Z,43.99
2018-10-05T10:52:23.949Z,44.79
2018-10-05T10:54:53.567Z,43.99
2018-10-05T10:57:23.260Z,43.03
2018-10-05T10:59:52.786Z,40.94
2018-10-05T11:02:22.406Z,40.34
2018-10-05T11:04:52.031Z,42.12
2018-10-05T11:07:21.842Z,42.99
2018-10-05T11:09:51.388Z,42.23
2018-10-05T11:12:20.915Z,41.98
2018-10-05T11:14:50.443Z,42.31
2018-10-05T11:17:19.937Z,42.69
2018-10-05T11:19:49.614Z,42.30
2018-10-05T11:22:19.158Z,43.50
2018-10-05T11:24:48.675Z,43.67
2018-10-05T11:27:18.229Z,42.66
2018-10-05T11:29:47.835Z,42.21
2018-10-05T11:32:17.504Z,43.37
2018-10-05T11:34:47.010Z,42.89
2018-10-05T11:37:16.540Z,39.81
2018-10-05T11:39:46.054Z,40.84
2018-10-05T11:42:15.603Z,41.27
2018-10-05T11:44:45.111Z,41.77
2018-10-05T11:47:14.618Z,40.27
2018-10-05T11:49:44.198Z,39.56
2018-10-05T11:52:13.737Z,39.72
2018-10-05T11:54:43.805Z,40.39
2018-10-05T11:57:13.352Z,41.91
2018-10-05T11:59:42.942Z,40.53
2018-10-05T12:02:12.690Z,40.60
2018-10-05T12:04:42.180Z,39.03
2018-10-05T12:07:11.682Z,38.86
2018-10-05T12:09:41.399Z,39.21
2018-10-05T12:12:10.989Z,39.98
2018-10-05T12:14:40.494Z,39.62
2018-10-05T12:17:10.402Z,40.31
2018-10-05T12:19:39.910Z,40.12
2018-10-05T12:22:09.416Z,38.93
2018-10-05T12:24:39.213Z,38.72
2018-10-05T12:27:08.830Z,37.49
2018-10-05T12:29:38.531Z,37.85
2018-10-05T12:32:08.284Z,39.12
2018-10-05T12:34:37.809Z,39.21
2018-10-05T12:37:07.481Z,38.11
2018-10-05T12:39:37.111Z,38.30
2018-10-05T12:42:06.829Z,39.72
2018-10-05T12:44:36.467Z,39.96
2018-10-05T12:47:06.031Z,39.38
2018-10-05T12:49:35.502Z,39.44
2018-10-05T12:52:05.000Z,40.10
2018-10-05T12:54:34.910Z,38.99
2018-10-05T12:57:04.428Z,38.62
2018-10-05T12:59:34.060Z,38.49
2018-10-05T13:02:03.602Z,39.22
2018-10-05T13:04:33.228Z,38.32
2018-10-05T13:07:02.752Z,37.99
2018-10-05T13:09:32.249Z,37.46
2018-10-05T13:12:01.896Z,38.26
2018-10-05T13:14:31.466Z,39.55
2018-10-05T13:17:00.991Z,37.53
2018-10-05T13:19:30.514Z,38.65
2018-10-05T13:22:00.092Z,38.50
2018-10-05T13:24:29.714Z,38.20
2018-10-05T13:26:59.468Z,38.38
2018-10-05T13:29:28.993Z,38.30
2018-10-05T13:31:58.545Z,38.00
2018-10-05T13:34:28.437Z,37.54
2018-10-05T13:36:58.146Z,37.85
2018-10-05T13:39:27.747Z,37.43
2018-10-05T13:41:57.269Z,37.45
2018-10-05T13:44:26.960Z,37.18
2018-10-05T13:46:57.113Z,36.51
2018-10-05T13:49:26.619Z,36.91
2018-10-05T13:51:56.129Z,37.30
2018-10-05T13:54:26.707Z,37.51
2018-10-05T13:56:56.235Z,37.70
2018-10-05T13:59:25.802Z,37.74
2018-10-05T14:01:55.313Z,37.85
2018-10-05T14:04:24.858Z,38.06
2018-10-05T14:06:54.432Z,36.28
2018-10-05T14:09:24.091Z,37.73
2018-10-05T14:11:53.605Z,36.99
2018-10-05T14:14:23.103Z,37.20
2018-10-05T14:16:52.662Z,37.33
2018-10-05T14:19:22.192Z,37.02
2018-10-05T14:21:51.853Z,36.63
2018-10-05T14:24:21.518Z,36.92
2018-10-05T14:26:51.223Z,37.38
2018-10-05T14:29:20.753Z,37.28
2018-10-05T14:31:50.337Z,38.59
2018-10-05T14:34:19.830Z,37.53
2018-10-05T14:36:49.388Z,38.79
2018-10-05T14:39:18.936Z,38.15
2018-10-05T14:41:48.593Z,38.37
2018-10-05T14:44:18.377Z,38.13
2018-10-05T14:46:47.904Z,37.73
2018-10-05T14:49:18.073Z,37.71
2018-10-05T14:51:47.768Z,38.43
2018-10-05T14:54:17.361Z,38.25
2018-10-05T14:56:47.163Z,36.70
2018-10-05T14:59:16.672Z,37.04
2018-10-05T15:01:46.198Z,38.18
2018-10-05T15:04:15.699Z,37.76
2018-10-05T15:06:45.311Z,36.76
2018-10-05T15:09:14.806Z,38.40
2018-10-05T15:11:44.471Z,37.27
2018-10-05T15:14:15.050Z,37.78
2018-10-05T15:16:44.603Z,38.95
2018-10-05T15:19:14.322Z,38.72
2018-10-05T15:21:43.854Z,38.53
2018-10-05T15:24:13.397Z,38.79
2018-10-05T15:26:42.912Z,39.39
2018-10-05T15:29:12.365Z,39.13
2018-10-05T15:31:41.881Z,39.01
2018-10-05T15:34:11.416Z,39.38
2018-10-05T15:36:41.354Z,38.60
2018-10-05T15:39:11.218Z,38.53
2018-10-05T15:41:40.709Z,39.65
2018-10-05T15:44:10.207Z,39.86
2018-10-05T15:47:01.077Z,39.34
2018-10-05T15:49:31.441Z,38.88
2018-10-05T15:52:01.285Z,38.71
2018-10-05T15:54:30.970Z,39.42
2018-10-05T15:57:01.147Z,38.91
2018-10-05T15:59:31.598Z,38.79
2018-10-05T16:02:01.403Z,39.92
2018-10-05T16:04:31.237Z,39.23
2018-10-05T16:07:00.718Z,39.76
2018-10-05T16:09:30.237Z,39.51
2018-10-05T16:11:59.825Z,38.98
2018-10-05T16:14:29.541Z,39.63
2018-10-05T16:16:59.215Z,39.24
2018-10-05T16:19:28.815Z,40.12
2018-10-05T16:21:58.292Z,39.34
2018-10-05T16:24:32.306Z,40.36
2018-10-05T16:27:01.828Z,40.53
2018-10-05T16:29:31.345Z,41.24
2018-10-05T16:32:00.867Z,41.60
2018-10-05T16:34:30.374Z,43.32
2018-10-05T16:36:59.905Z,44.03
2018-10-05T16:39:29.409Z,45.90
2018-10-05T16:41:58.927Z,46.50
2018-10-05T16:44:28.479Z,47.20
2018-10-05T16:46:58.372Z,48.14
2018-10-05T16:49:27.915Z,47.91
2018-10-05T16:51:57.407Z,48.81
2018-10-05T16:54:26.901Z,48.08
2018-10-05T16:56:56.420Z,48.40
2018-10-05T16:59:26.125Z,49.35
2018-10-05T17:01:55.674Z,49.64
2018-10-05T17:04:25.293Z,48.74
2018-10-05T17:06:54.808Z,48.04
2018-10-05T17:09:24.352Z,47.90
2018-10-05T17:11:53.857Z,48.14
2018-10-05T17:14:23.409Z,47.55
2018-10-05T17:16:52.935Z,48.21
2018-10-05T17:19:22.434Z,48.84
2018-10-05T17:21:52.021Z,48.72
2018-10-05T17:24:21.554Z,48.36
2018-10-05T17:26:51.465Z,49.03
2018-10-05T17:29:21.085Z,48.77
2018-10-05T17:31:50.743Z,49.40
2018-10-05T17:34:20.267Z,48.82
2018-10-05T17:36:49.850Z,49.22
2018-10-05T17:39:19.487Z,49.27
2018-10-05T17:41:49.213Z,49.42
2018-10-05T17:44:18.763Z,50.73
2018-10-05T17:46:48.296Z,51.34
2018-10-05T17:49:17.910Z,51.12
2018-10-05T17:51:47.497Z,51.81
2018-10-05T17:54:17.019Z,52.04
2018-10-05T17:56:46.595Z,53.21
2018-10-05T17:59:16.191Z,52.78
2018-10-05T18:01:45.743Z,53.97
2018-10-05T18:04:15.501Z,53.34
2018-10-05T18:06:45.064Z,54.14
2018-10-05T18:09:14.645Z,53.94
2018-10-05T18:11:44.168Z,52.77
2018-10-05T18:14:13.681Z,52.89
2018-10-05T18:16:43.252Z,52.62
2018-10-05T18:19:12.877Z,52.40
2018-10-05T18:21:43.025Z,53.00
2018-10-05T18:24:12.603Z,53.04
2018-10-05T18:26:42.237Z,53.82
2018-10-05T18:29:11.816Z,53.67
2018-10-05T18:31:41.379Z,54.94
2018-10-05T18:34:11.195Z,54.65
2018-10-05T18:36:40.869Z,55.29
2018-10-05T18:39:11.088Z,56.03
2018-10-05T18:41:40.727Z,55.41
2018-10-05T18:44:10.418Z,55.72
2018-10-05T18:46:40.078Z,54.95
2018-10-05T18:49:09.695Z,54.31
2018-10-05T18:51:39.238Z,55.42
2018-10-05T18:54:08.789Z,55.45
2018-10-05T18:56:55.225Z,55.06
2018-10-05T18:59:24.883Z,55.49
2018-10-05T19:01:54.697Z,55.52
2018-10-05T19:04:24.539Z,56.60
2018-10-05T19:06:54.119Z,56.04
2018-10-05T19:09:24.222Z,56.71
2018-10-05T19:11:54.175Z,57.61
2018-10-05T19:14:23.679Z,56.56
2018-10-05T19:16:53.524Z,56.43
2018-10-05T19:19:23.079Z,56.41
2018-10-05T19:21:52.795Z,55.00
2018-10-05T19:24:22.515Z,55.24
2018-10-05T19:26:54.128Z,55.06
2018-10-05T19:29:23.831Z,54.47
2018-10-05T19:31:53.363Z,55.13
2018-10-05T19:34:22.948Z,54.52
2018-10-05T19:36:52.878Z,55.08
2018-10-05T19:39:22.478Z,54.87
2018-10-05T19:41:52.455Z,54.59
2018-10-05T19:44:21.956Z,54.80
2018-10-05T19:46:51.486Z,54.74
2018-10-05T19:49:21.149Z,55.26
2018-10-05T19:51:50.997Z,54.19
2018-10-05T19:54:20.517Z,54.22
2018-10-05T19:56:50.064Z,54.31
2018-10-05T19:59:19.564Z,54.34
2018-10-05T20:01:49.141Z,55.11
2018-10-05T20:04:18.897Z,54.31
2018-10-05T20:06:48.485Z,54.55
2018-10-05T20:09:18.111Z,54.86
2018-10-05T20:11:47.773Z,55.03
2018-10-05T20:14:17.461Z,55.01
2018-10-05T20:16:47.114Z,55.10
2018-10-05T20:19:16.688Z,55.63
2018-10-05T20:21:46.182Z,54.81
2018-10-05T20:24:15.709Z,55.09
2018-10-05T20:26:45.499Z,55.80
2018-10-05T20:29:15.067Z,54.91
2018-10-05T20:31:44.597Z,55.27
2018-10-05T20:34:14.262Z,55.89
2018-10-05T20:36:44.344Z,55.93
2018-10-05T20:39:13.874Z,55.34
2018-10-05T20:41:43.462Z,55.53
2018-10-05T20:44:13.083Z,55.94
2018-10-05T20:46:43.074Z,56.19
2018-10-05T20:49:12.850Z,56.09
2018-10-05T20:51:42.461Z,56.27
2018-10-05T20:54:12.533Z,56.27
2018-10-05T20:56:42.043Z,56.03
2018-10-05T20:59:11.567Z,56.80
2018-10-05T21:01:41.089Z,56.08
2018-10-05T21:04:10.685Z,56.65
2018-10-05T21:06:40.523Z,56.75
2018-10-05T21:09:11.049Z,56.72
2018-10-05T21:11:40.526Z,57.32
2018-10-05T21:14:09.992Z,56.28
2018-10-05T21:16:39.508Z,57.51
2018-10-05T21:19:09.067Z,57.20
2018-10-05T21:21:38.579Z,57.74
2018-10-05T21:24:08.485Z,57.49
2018-10-05T21:26:37.995Z,57.79
2018-10-05T21:29:08.337Z,57.09
2018-10-05T21:31:37.999Z,57.32
2018-10-05T21:34:07.785Z,57.99
2018-10-05T21:36:37.270Z,58.12
2018-10-05T21:39:10.034Z,58.53
2018-10-05T21:41:39.538Z,57.44
2018-10-05T21:44:09.056Z,58.02
2018-10-05T21:46:38.965Z,57.62
2018-10-05T21:49:08.627Z,58.50
2018-10-05T21:51:38.142Z,58.26
2018-10-05T21:54:08.146Z,59.43
2018-10-05T21:56:37.736Z,58.31
2018-10-05T21:59:07.304Z,58.76
2018-10-05T22:01:36.791Z,58.06
2018-10-05T22:04:06.819Z,58.69
2018-10-05T22:06:36.350Z,58.29
2018-10-05T22:09:09.479Z,59.01
2018-10-05T22:11:39.304Z,59.23
2018-10-05T22:14:09.170Z,58.97
2018-10-05T22:16:38.796Z,58.61
2018-10-05T22:19:08.298Z,59.41
2018-10-05T22:21:37.822Z,59.37
2018-10-05T22:24:07.342Z,59.57
2018-10-05T22:26:36.916Z,59.48
2018-10-05T22:29:06.409Z,59.79
2018-10-05T22:31:35.909Z,60.08
2018-10-05T22:34:05.398Z,60.27
2018-10-05T22:36:34.931Z,59.97
2018-10-05T22:39:05.762Z,59.57
2018-10-05T22:41:35.421Z,60.02
2018-10-05T22:44:04.906Z,60.16
2018-10-05T22:46:34.426Z,60.21
2018-10-05T22:49:03.930Z,59.92
2018-10-05T22:51:33.416Z,60.58
2018-10-05T22:54:03.045Z,59.96
2018-10-05T22:56:32.567Z,60.44
2018-10-05T22:59:02.075Z,61.19
2018-10-05T23:01:31.552Z,60.48
2018-10-05T23:04:01.068Z,60.60
2018-10-05T23:06:30.599Z,61.03
2018-10-05T23:09:00.069Z,61.32
2018-10-05T23:11:29.749Z,61.03
2018-10-05T23:13:59.226Z,61.17
2018-10-05T23:16:28.742Z,61.24
2018-10-05T23:18:58.219Z,60.67
2018-10-05T23:21:27.708Z,61.41
2018-10-05T23:23:57.251Z,61.95
2018-10-05T23:26:26.813Z,61.35
2018-10-05T23:28:56.328Z,61.88
2018-10-05T23:31:25.825Z,61.65
2018-10-05T23:33:55.354Z,62.04
2018-10-05T23:36:24.850Z,61.81
2018-10-05T23:38:54.404Z,61.67
2018-10-05T23:41:23.902Z,62.37
2018-10-05T23:43:53.430Z,62.08
2018-10-05T23:46:22.944Z,61.83
2018-10-05T23:48:52.456Z,61.89
2018-10-05T23:51:22.038Z,62.60
2018-10-05T23:53:51.545Z,62.65
2018-10-05T23:56:21.390Z,62.41
2018-10-05T23:58:50.964Z,62.06
